Time;durP1;ratioP1;P1;durP2;ratioP2;P2;SDS_P1;SDS_P2;PMS_P1;PMS_P2;Temp;Humidity;BMP_temperature;BMP_pressure;BME280_temperature;BME280_humidity;BME280_pressure;Samples;Min_cycle;Max_cycle;Signal;HPM_P1;HPM_P2
2022/03/27 00:00:31;;;;;;;25.35;17.80;;;15.00;54.80;;;;;;5110452;27;20027;-59
2022/03/27 00:02:57;;;;;;;23.75;17.70;;;15.00;54.70;;;;;;5103358;27;20271;-59
2022/03/27 00:05:22;;;;;;;24.38;17.77;;;15.00;54.70;;;;;;5098829;27;20043;-59
2022/03/27 00:07:48;;;;;;;23.02;17.50;;;14.90;54.80;;;;;;5116916;27;20473;-59
2022/03/27 00:10:13;;;;;;;22.92;17.58;;;14.90;54.80;;;;;;5118225;27;20512;-60
2022/03/27 00:12:39;;;;;;;25.30;16.73;;;14.90;54.80;;;;;;5119529;27;20026;-60
2022/03/27 00:15:04;;;;;;;23.55;16.92;;;14.90;54.90;;;;;;5118233;27;20035;-61
2022/03/27 00:17:32;;;;;;;23.75;17.38;;;14.80;55.20;;;;;;5120485;27;20062;-60
2022/03/27 00:20:01;;;;;;;22.75;17.00;;;14.80;54.90;;;;;;5084509;27;20031;-60
2022/03/27 00:22:27;;;;;;;23.38;17.85;;;14.80;54.90;;;;;;5100139;27;20357;-60
2022/03/27 00:24:52;;;;;;;22.92;17.33;;;14.80;54.90;;;;;;5101986;27;20027;-59
2022/03/27 00:27:18;;;;;;;24.45;17.45;;;14.80;55.10;;;;;;5100241;27;20023;-59
2022/03/27 00:29:43;;;;;;;22.05;16.58;;;14.80;55.20;;;;;;5102136;27;20769;-59
2022/03/27 00:32:09;;;;;;;21.92;17.10;;;14.70;55.20;;;;;;5119564;27;20138;-59
2022/03/27 00:34:34;;;;;;;22.15;17.33;;;14.70;55.30;;;;;;5116899;27;20054;-59
2022/03/27 00:37:00;;;;;;;22.88;17.23;;;14.70;55.30;;;;;;5113353;27;20704;-60
2022/03/27 00:39:25;;;;;;;22.77;16.75;;;14.60;55.20;;;;;;5115970;27;20103;-59
2022/03/27 00:41:51;;;;;;;20.83;17.38;;;14.60;55.20;;;;;;5115729;27;20402;-59
2022/03/27 00:44:17;;;;;;;22.00;16.38;;;14.60;55.30;;;;;;5092510;27;20047;-59
2022/03/27 00:46:43;;;;;;;22.58;17.63;;;14.60;55.30;;;;;;5118571;27;20039;-59
2022/03/27 00:49:09;;;;;;;22.52;16.35;;;14.50;55.20;;;;;;5122034;27;20301;-59
2022/03/27 00:51:34;;;;;;;21.25;17.08;;;14.60;55.30;;;;;;5116045;27;20061;-59
2022/03/27 00:54:00;;;;;;;23.42;17.60;;;14.60;55.10;;;;;;5116588;27;20501;-59
2022/03/27 00:56:25;;;;;;;24.38;16.42;;;14.60;55.20;;;;;;5119740;27;20038;-59
2022/03/27 00:58:51;;;;;;;24.15;16.73;;;14.50;55.10;;;;;;5099414;27;20110;-59
2022/03/27 01:01:21;;;;;;;21.15;16.23;;;14.50;55.10;;;;;;5120681;27;20035;-59
2022/03/27 01:03:53;;;;;;;25.60;16.38;;;14.50;55.10;;;;;;5085329;27;20037;-60
2022/03/27 01:06:39;;;;;;;26.05;17.58;;;14.40;55.10;;;;;;5084868;27;20138;-60
2022/03/27 01:11:50;;;;;;;23.23;17.15;;;14.40;55.10;;;;;;5099652;28;20046;-60
2022/03/27 01:14:24;;;;;;;23.52;17.50;;;14.40;55.00;;;;;;5109402;28;20478;-59
2022/03/27 01:16:58;;;;;;;21.60;16.52;;;14.30;55.20;;;;;;5082372;28;20147;-60
2022/03/27 01:19:24;;;;;;;23.98;17.60;;;14.30;55.10;;;;;;5099315;27;20352;-60
2022/03/27 01:21:49;;;;;;;24.80;16.77;;;14.30;55.10;;;;;;5097528;28;20272;-60
2022/03/27 01:24:16;;;;;;;19.60;16.75;;;14.30;55.10;;;;;;5098981;28;20074;-62
2022/03/27 01:26:42;;;;;;;23.35;17.20;;;14.30;55.20;;;;;;5102062;28;20023;-63
2022/03/27 01:29:07;;;;;;;25.80;17.90;;;14.20;55.30;;;;;;5118180;28;20547;-62
2022/03/27 01:31:33;;;;;;;23.60;17.27;;;14.20;55.40;;;;;;5118332;27;20579;-62
2022/03/27 01:33:58;;;;;;;20.30;16.50;;;14.20;55.30;;;;;;5098665;28;20031;-62
2022/03/27 01:36:25;;;;;;;21.15;16.92;;;14.10;55.30;;;;;;5115628;27;20467;-59
2022/03/27 01:38:55;;;;;;;24.35;17.08;;;14.10;55.40;;;;;;5111719;28;20389;-59
2022/03/27 01:41:20;;;;;;;21.17;16.60;;;14.10;55.30;;;;;;5099332;28;20027;-60
2022/03/27 01:43:46;;;;;;;25.02;17.52;;;14.00;55.40;;;;;;5108868;28;20388;-60
2022/03/27 01:46:12;;;;;;;25.10;17.00;;;14.00;55.50;;;;;;5084142;28;20119;-60
2022/03/27 01:48:37;;;;;;;22.77;17.20;;;14.00;55.50;;;;;;5099849;28;20019;-60
2022/03/27 01:51:03;;;;;;;23.73;17.63;;;13.90;55.50;;;;;;5116766;27;20031;-60
2022/03/27 01:53:28;;;;;;;22.55;16.63;;;13.90;55.50;;;;;;5101119;28;20030;-60
2022/03/27 01:55:54;;;;;;;20.55;15.68;;;13.90;55.50;;;;;;5117715;28;20464;-60
2022/03/27 01:58:20;;;;;;;20.58;15.93;;;13.90;55.50;;;;;;5100346;27;20466;-60
2022/03/27 02:00:45;;;;;;;26.35;17.85;;;13.90;55.60;;;;;;5118660;28;20058;-60
2022/03/27 02:03:11;;;;;;;25.35;17.85;;;13.90;55.50;;;;;;5092089;28;20142;-60
2022/03/27 02:05:36;;;;;;;22.85;16.92;;;13.70;55.50;;;;;;5074398;28;20127;-60
2022/03/27 02:08:02;;;;;;;21.55;17.15;;;13.80;55.60;;;;;;5090343;28;20047;-60
2022/03/27 02:10:28;;;;;;;26.55;18.00;;;13.80;55.70;;;;;;5120210;27;20070;-60
2022/03/27 02:12:53;;;;;;;24.35;17.05;;;13.80;55.60;;;;;;5098395;28;20088;-60
2022/03/27 02:15:19;;;;;;;22.60;16.92;;;13.70;55.60;;;;;;5121116;27;20055;-59
2022/03/27 02:17:44;;;;;;;21.85;16.30;;;13.70;55.60;;;;;;5112302;28;20066;-60
2022/03/27 02:20:10;;;;;;;24.08;17.10;;;13.70;55.70;;;;;;5084616;27;20027;-59
2022/03/27 02:22:36;;;;;;;24.70;16.42;;;13.70;55.70;;;;;;5108029;27;20028;-60
2022/03/27 02:25:02;;;;;;;23.17;16.05;;;13.70;55.70;;;;;;5107481;27;20047;-60
2022/03/27 02:27:28;;;;;;;22.98;16.45;;;13.60;55.80;;;;;;5087059;27;20050;-60
2022/03/27 02:29:53;;;;;;;23.10;17.02;;;13.60;55.80;;;;;;5114784;27;20031;-60
2022/03/27 02:32:19;;;;;;;24.55;17.15;;;13.60;55.90;;;;;;5122773;27;20331;-60
2022/03/27 02:34:45;;;;;;;25.23;17.17;;;13.60;56.00;;;;;;5120936;27;20023;-59
2022/03/27 02:37:10;;;;;;;24.15;17.15;;;13.50;56.00;;;;;;5123895;27;20078;-60
2022/03/27 02:39:36;;;;;;;22.52;16.73;;;13.50;55.90;;;;;;5120635;27;20066;-60
2022/03/27 02:42:01;;;;;;;22.10;16.98;;;13.50;56.00;;;;;;5111553;27;20055;-60
2022/03/27 02:44:27;;;;;;;22.23;16.48;;;13.50;56.10;;;;;;5085154;27;20023;-60
2022/03/27 02:46:52;;;;;;;24.52;17.60;;;13.50;56.10;;;;;;5120492;27;20130;-61
2022/03/27 02:49:18;;;;;;;21.85;16.48;;;13.40;56.20;;;;;;5105025;27;20382;-60
2022/03/27 02:51:45;;;;;;;23.77;16.77;;;13.40;56.10;;;;;;5103370;27;20038;-59
2022/03/27 02:54:11;;;;;;;23.02;16.65;;;13.40;56.20;;;;;;5099918;27;20110;-60
2022/03/27 02:56:37;;;;;;;23.70;16.58;;;13.40;56.10;;;;;;5121616;27;20050;-60
2022/03/27 02:59:03;;;;;;;23.30;16.35;;;13.30;56.30;;;;;;5102972;27;20042;-60
2022/03/27 03:01:28;;;;;;;22.33;17.08;;;13.30;56.30;;;;;;5122046;27;20027;-60
2022/03/27 03:03:55;;;;;;;23.20;16.40;;;13.20;57.00;;;;;;5102608;27;20557;-60
2022/03/27 03:06:21;;;;;;;22.98;16.48;;;13.30;56.50;;;;;;5119683;27;20031;-60
2022/03/27 03:08:46;;;;;;;23.80;17.13;;;13.20;56.50;;;;;;5088158;27;20038;-60
2022/03/27 03:11:13;;;;;;;24.25;16.38;;;13.20;56.40;;;;;;5100405;27;20049;-60
2022/03/27 03:13:39;;;;;;;26.60;17.27;;;13.20;56.40;;;;;;5097512;27;20440;-60
2022/03/27 03:16:06;;;;;;;22.65;15.93;;;13.20;56.40;;;;;;5121793;27;20118;-59
2022/03/27 03:18:36;;;;;;;20.15;15.35;;;13.20;56.50;;;;;;5120507;27;20031;-59
2022/03/27 03:21:02;;;;;;;22.98;16.10;;;13.20;56.60;;;;;;5103046;27;20034;-59
2022/03/27 03:23:28;;;;;;;25.65;15.75;;;13.10;56.60;;;;;;5119684;27;20483;-61
2022/03/27 03:25:54;;;;;;;22.52;16.92;;;13.10;56.70;;;;;;5085551;27;20046;-60
2022/03/27 03:28:20;;;;;;;24.23;16.70;;;13.00;56.70;;;;;;5101839;27;20425;-59
2022/03/27 03:30:46;;;;;;;23.48;17.08;;;13.00;56.80;;;;;;5094284;27;21056;-60
2022/03/27 03:33:12;;;;;;;22.02;16.67;;;13.00;56.80;;;;;;5118939;27;20446;-60
2022/03/27 03:35:39;;;;;;;24.27;16.92;;;12.90;56.80;;;;;;5117522;27;20045;-60
2022/03/27 03:38:05;;;;;;;23.70;15.98;;;12.90;56.90;;;;;;5104223;27;20034;-59
2022/03/27 03:40:31;;;;;;;23.63;17.33;;;12.90;56.90;;;;;;5119858;27;20142;-60
2022/03/27 03:42:56;;;;;;;21.95;16.70;;;12.90;56.90;;;;;;5101760;27;20165;-59
2022/03/27 03:45:22;;;;;;;25.55;16.48;;;12.90;57.10;;;;;;5116331;27;20335;-60
2022/03/27 03:47:47;;;;;;;22.75;17.00;;;12.90;57.10;;;;;;5085578;27;20467;-60
2022/03/27 03:50:13;;;;;;;22.45;16.52;;;12.80;57.20;;;;;;5101840;27;20038;-60
2022/03/27 03:52:39;;;;;;;22.38;16.23;;;12.80;57.20;;;;;;5119600;27;20358;-60
2022/03/27 03:55:05;;;;;;;24.70;17.10;;;12.80;57.30;;;;;;5099694;27;20046;-60
2022/03/27 03:57:31;;;;;;;24.52;15.23;;;12.70;57.30;;;;;;5101465;27;20046;-60
2022/03/27 03:59:56;;;;;;;24.38;16.85;;;12.70;57.40;;;;;;5108192;27;20028;-60
2022/03/27 04:02:21;;;;;;;25.65;15.50;;;12.70;57.30;;;;;;5119741;27;20109;-60
2022/03/27 04:04:47;;;;;;;22.05;16.08;;;12.60;57.30;;;;;;5096406;27;20024;-60
2022/03/27 04:07:13;;;;;;;19.17;15.25;;;12.70;57.30;;;;;;5120451;27;20027;-60
2022/03/27 04:09:38;;;;;;;24.88;17.25;;;12.70;57.40;;;;;;5095517;27;20603;-60
2022/03/27 04:12:05;;;;;;;20.50;15.60;;;12.60;57.40;;;;;;5122450;27;20032;-59
2022/03/27 04:14:34;;;;;;;25.80;16.63;;;12.60;57.50;;;;;;5115648;27;20103;-60
2022/03/27 04:17:00;;;;;;;25.17;16.00;;;12.60;57.60;;;;;;5113771;27;20023;-60
2022/03/27 04:19:25;;;;;;;22.40;16.85;;;12.50;57.50;;;;;;5102123;27;20034;-60
2022/03/27 04:21:51;;;;;;;21.60;15.85;;;12.50;57.50;;;;;;5103137;27;20051;-59
2022/03/27 04:24:16;;;;;;;25.67;16.30;;;12.60;57.60;;;;;;5099278;27;20377;-59
2022/03/27 04:26:42;;;;;;;22.42;16.77;;;12.50;57.50;;;;;;5118343;27;20063;-59
2022/03/27 04:29:08;;;;;;;21.50;16.17;;;12.50;57.60;;;;;;5118199;27;20019;-60
2022/03/27 04:31:33;;;;;;;24.20;16.27;;;12.50;57.70;;;;;;5117728;27;20047;-59
2022/03/27 04:33:59;;;;;;;23.60;16.25;;;12.50;57.90;;;;;;5117907;27;20046;-60
2022/03/27 04:36:25;;;;;;;25.83;16.13;;;12.40;57.90;;;;;;5101647;27;20039;-59
2022/03/27 04:38:50;;;;;;;21.27;15.32;;;12.30;57.90;;;;;;5119466;27;20073;-60
2022/03/27 04:41:16;;;;;;;21.27;15.23;;;12.30;58.00;;;;;;5118297;27;20618;-59
2022/03/27 04:43:43;;;;;;;22.42;16.05;;;12.30;58.00;;;;;;5102558;27;20047;-60
2022/03/27 04:46:08;;;;;;;24.48;17.20;;;12.30;58.10;;;;;;5120107;27;20031;-59
2022/03/27 04:48:34;;;;;;;21.10;16.65;;;12.30;58.20;;;;;;5101128;27;20264;-60
2022/03/27 04:50:59;;;;;;;24.20;16.80;;;12.20;58.20;;;;;;5119497;27;20529;-59
2022/03/27 04:53:25;;;;;;;21.25;15.82;;;12.20;58.30;;;;;;5098955;27;20144;-60
2022/03/27 04:55:51;;;;;;;21.80;16.23;;;12.20;58.20;;;;;;5118575;27;20031;-60
2022/03/27 04:58:17;;;;;;;22.55;15.75;;;12.20;58.20;;;;;;5099103;28;20368;-60
2022/03/27 05:00:43;;;;;;;30.38;15.73;;;12.10;58.30;;;;;;5096218;28;20998;-61
2022/03/27 05:03:08;;;;;;;25.27;16.50;;;12.10;58.40;;;;;;5086170;28;20040;-60
2022/03/27 05:05:34;;;;;;;25.25;16.33;;;12.10;58.40;;;;;;5083521;28;20472;-58
2022/03/27 05:08:00;;;;;;;24.80;16.65;;;12.10;58.40;;;;;;5112969;27;20020;-59
2022/03/27 05:10:25;;;;;;;24.85;16.15;;;12.00;58.50;;;;;;5111659;28;20094;-60
2022/03/27 05:12:51;;;;;;;30.10;15.93;;;12.00;58.60;;;;;;5067455;28;20139;-60
2022/03/27 05:15:17;;;;;;;27.17;17.45;;;12.00;58.50;;;;;;5101757;28;20091;-60
2022/03/27 05:17:58;;;;;;;25.17;17.80;;;12.00;58.50;;;;;;5114937;27;20027;-60
2022/03/27 05:20:25;;;;;;;23.95;16.35;;;12.00;58.70;;;;;;5097705;28;20028;-59
2022/03/27 05:22:50;;;;;;;27.58;16.13;;;11.90;58.70;;;;;;5120816;27;20015;-63
2022/03/27 05:25:16;;;;;;;20.98;16.45;;;11.90;58.70;;;;;;5100761;28;20502;-60
2022/03/27 05:27:59;;;;;;;24.23;17.48;;;11.90;58.70;;;;;;5100134;28;20043;-59
2022/03/27 05:30:26;;;;;;;26.38;17.05;;;11.90;58.90;;;;;;5099890;28;20465;-59
2022/03/27 05:32:53;;;;;;;23.30;16.27;;;11.80;58.90;;;;;;5085166;28;20057;-59
2022/03/27 05:35:19;;;;;;;20.80;15.95;;;11.80;59.00;;;;;;5098752;28;20019;-59
2022/03/27 05:37:45;;;;;;;26.70;17.00;;;11.80;59.20;;;;;;5120095;28;20038;-60
2022/03/27 05:40:13;;;;;;;35.40;17.90;;;11.80;59.30;;;;;;5080960;28;20039;-60
2022/03/27 05:42:39;;;;;;;40.17;18.25;;;11.80;59.30;;;;;;5101913;28;20177;-60
2022/03/27 05:45:05;;;;;;;37.47;18.58;;;11.70;59.30;;;;;;5100050;28;20038;-59
2022/03/27 05:47:31;;;;;;;34.92;18.05;;;11.70;59.40;;;;;;5085465;28;20418;-60
2022/03/27 05:49:56;;;;;;;40.05;17.80;;;11.70;59.40;;;;;;5098834;28;20015;-60
2022/03/27 05:52:23;;;;;;;35.30;17.67;;;11.70;59.40;;;;;;5100881;28;20031;-60
2022/03/27 05:54:48;;;;;;;38.05;18.75;;;11.70;59.40;;;;;;5079835;28;20708;-59
2022/03/27 05:57:14;;;;;;;42.53;18.73;;;11.70;59.60;;;;;;5084611;27;20415;-60
2022/03/27 05:59:40;;;;;;;39.10;18.00;;;11.70;59.70;;;;;;5121496;27;20027;-60
2022/03/27 06:02:05;;;;;;;34.10;18.70;;;11.70;59.60;;;;;;5089102;27;20505;-61
2022/03/27 06:04:31;;;;;;;32.95;17.67;;;11.70;59.70;;;;;;5084070;27;20131;-60
2022/03/27 06:06:56;;;;;;;31.58;17.55;;;11.70;59.70;;;;;;5071678;27;20050;-60
2022/03/27 06:09:22;;;;;;;38.25;17.65;;;11.70;59.80;;;;;;5121034;27;20035;-60
2022/03/27 06:11:48;;;;;;;28.98;18.00;;;11.60;59.80;;;;;;5122465;27;20058;-60
2022/03/27 06:14:14;;;;;;;41.20;19.40;;;11.60;59.90;;;;;;5122608;27;20534;-59
2022/03/27 06:16:39;;;;;;;27.25;18.00;;;11.60;60.00;;;;;;5105251;27;20027;-60
2022/03/27 06:19:05;;;;;;;34.15;18.55;;;11.60;60.10;;;;;;5121959;27;20052;-60
2022/03/27 06:21:30;;;;;;;33.80;17.15;;;11.60;60.20;;;;;;5119340;27;20058;-59
2022/03/27 06:23:56;;;;;;;29.30;18.45;;;11.60;60.10;;;;;;5102541;27;20035;-60
2022/03/27 06:26:21;;;;;;;29.52;19.05;;;11.60;60.10;;;;;;5103802;27;20415;-60
2022/03/27 06:28:47;;;;;;;36.53;18.88;;;11.60;60.10;;;;;;5123914;27;20027;-60
2022/03/27 06:31:13;;;;;;;35.85;19.02;;;11.60;60.20;;;;;;5100715;27;20075;-60
2022/03/27 06:33:38;;;;;;;26.83;18.25;;;11.50;60.80;;;;;;5121219;27;20040;-60
2022/03/27 06:36:04;;;;;;;28.98;18.05;;;11.60;60.20;;;;;;5104539;27;20027;-59
2022/03/27 06:38:30;;;;;;;35.72;18.42;;;11.60;60.10;;;;;;5124249;27;20030;-60
2022/03/27 06:40:55;;;;;;;28.42;18.38;;;11.50;60.10;;;;;;5103243;27;20027;-59
2022/03/27 06:43:22;;;;;;;33.78;19.08;;;11.50;60.10;;;;;;5104991;27;20526;-60
2022/03/27 06:45:48;;;;;;;28.95;18.23;;;11.50;60.10;;;;;;5104331;27;20118;-60
2022/03/27 06:48:14;;;;;;;31.33;17.95;;;11.60;60.10;;;;;;5088798;27;20176;-59
2022/03/27 06:50:39;;;;;;;29.05;17.30;;;11.50;60.10;;;;;;5105363;27;20216;-59
2022/03/27 06:53:05;;;;;;;32.30;19.17;;;11.50;60.20;;;;;;5121836;27;20019;-60
2022/03/27 06:55:32;;;;;;;26.63;17.58;;;11.50;60.10;;;;;;5087048;27;20487;-60
2022/03/27 06:57:57;;;;;;;28.30;17.40;;;11.50;60.10;;;;;;5100291;27;20041;-60
2022/03/27 07:03:09;;;;;;;29.20;17.80;;;11.50;60.10;;;;;;5103882;27;20035;-59
2022/03/27 07:05:37;;;;;;;29.70;17.58;;;11.50;60.10;;;;;;5103395;27;20031;-60
2022/03/27 07:08:04;;;;;;;31.60;18.83;;;11.40;60.00;;;;;;5102848;27;20030;-60
2022/03/27 07:10:30;;;;;;;27.25;17.27;;;11.50;60.10;;;;;;5085278;27;20131;-59
2022/03/27 07:12:55;;;;;;;25.95;17.35;;;11.50;60.10;;;;;;5103349;27;20031;-59
2022/03/27 07:15:21;;;;;;;33.35;18.55;;;11.50;60.00;;;;;;5124019;27;20479;-60
2022/03/27 07:17:48;;;;;;;28.60;18.65;;;11.50;60.00;;;;;;5087340;27;20053;-60
2022/03/27 07:20:24;;;;;;;43.45;19.25;;;11.50;60.00;;;;;;5102471;27;20019;-60
2022/03/27 07:22:50;;;;;;;40.55;18.90;;;11.60;60.10;;;;;;5120448;27;20176;-60
2022/03/27 07:25:16;;;;;;;81.13;21.33;;;11.50;60.00;;;;;;5086781;27;20126;-60
2022/03/27 07:27:42;;;;;;;200.73;29.75;;;11.50;60.10;;;;;;5102105;27;20029;-60
2022/03/27 07:30:08;;;;;;;80.65;21.15;;;11.50;60.20;;;;;;5117873;27;20658;-59
2022/03/27 07:32:34;;;;;;;87.13;21.38;;;11.50;60.20;;;;;;5084838;27;20031;-59
2022/03/27 07:34:59;;;;;;;73.72;19.15;;;11.50;60.10;;;;;;5086289;27;20131;-59
2022/03/27 07:37:25;;;;;;;61.33;20.85;;;11.50;60.00;;;;;;5100693;27;21394;-59
2022/03/27 07:39:50;;;;;;;74.68;20.92;;;11.50;60.70;;;;;;5101466;27;20031;-59
2022/03/27 07:42:16;;;;;;;75.65;22.70;;;11.60;60.10;;;;;;5119547;27;20088;-60
2022/03/27 07:44:41;;;;;;;61.08;20.38;;;11.60;60.00;;;;;;5086182;27;20027;-60
2022/03/27 07:47:07;;;;;;;69.10;20.95;;;11.30;59.80;;;;;;5101715;27;20046;-60
2022/03/27 07:49:33;;;;;;;51.47;21.13;;;11.60;59.90;;;;;;5094548;28;20043;-60
2022/03/27 07:52:00;;;;;;;55.60;21.13;;;11.60;59.90;;;;;;5097560;27;20378;-59
2022/03/27 07:54:26;;;;;;;54.55;20.50;;;11.60;59.80;;;;;;5120997;27;20105;-60
2022/03/27 07:56:52;;;;;;;46.20;20.67;;;11.60;59.80;;;;;;5122160;27;20096;-60
2022/03/27 07:59:17;;;;;;;39.78;19.10;;;11.60;60.30;;;;;;5083710;27;20027;-60
2022/03/27 08:01:43;;;;;;;51.05;20.70;;;11.60;59.70;;;;;;5113571;27;20051;-59
2022/03/27 08:04:09;;;;;;;52.35;20.80;;;11.60;59.60;;;;;;5112294;27;20047;-60
2022/03/27 08:06:36;;;;;;;46.90;20.40;;;11.60;59.60;;;;;;5091375;27;20027;-60
2022/03/27 08:09:04;;;;;;;42.45;19.95;;;11.60;59.70;;;;;;5101398;27;20031;-60
2022/03/27 08:11:31;;;;;;;42.08;20.95;;;11.60;59.70;;;;;;5112940;27;20430;-62
2022/03/27 08:13:56;;;;;;;37.10;19.73;;;11.70;59.60;;;;;;5101054;27;20053;-59
2022/03/27 08:16:22;;;;;;;32.40;19.45;;;11.60;59.30;;;;;;5117379;27;20047;-60
2022/03/27 08:18:48;;;;;;;38.72;19.35;;;11.60;59.40;;;;;;5100559;27;20407;-60
2022/03/27 08:21:13;;;;;;;36.60;19.88;;;11.90;59.70;;;;;;5119308;27;20027;-60
2022/03/27 08:23:39;;;;;;;36.75;19.45;;;11.60;59.50;;;;;;5116959;27;20039;-59
2022/03/27 08:28:49;;;;;;;44.88;19.13;;;11.70;59.50;;;;;;5116933;27;20100;-64
2022/03/27 08:31:14;;;;;;;40.85;18.60;;;11.70;59.50;;;;;;5115884;27;20523;-60
2022/03/27 08:33:40;;;;;;;42.22;19.42;;;11.70;59.50;;;;;;5113641;27;20028;-60
2022/03/27 08:36:05;;;;;;;34.38;19.63;;;11.70;59.50;;;;;;5111297;27;20048;-59
2022/03/27 08:38:31;;;;;;;37.38;20.58;;;11.80;59.50;;;;;;5114799;27;20112;-60
2022/03/27 08:41:00;;;;;;;74.03;23.60;;;11.80;59.50;;;;;;5116929;27;20046;-60
2022/03/27 08:43:26;;;;;;;41.05;20.13;;;11.80;59.60;;;;;;5095925;27;21530;-60
2022/03/27 08:45:51;;;;;;;38.90;19.77;;;11.90;59.50;;;;;;5074123;28;20608;-59
2022/03/27 08:48:17;;;;;;;29.00;18.17;;;11.90;59.50;;;;;;5096808;27;20420;-61
2022/03/27 08:51:27;;;;;;;35.95;18.48;;;11.90;59.50;;;;;;5111335;27;20478;-59
2022/03/27 08:54:07;;;;;;;67.43;20.50;;;11.90;59.50;;;;;;5097380;27;20114;-60
2022/03/27 08:56:34;;;;;;;44.15;19.13;;;11.90;59.60;;;;;;5076403;27;20608;-59
2022/03/27 08:59:08;;;;;;;48.10;20.45;;;11.90;59.60;;;;;;5099079;27;20107;-59
2022/03/27 09:01:34;;;;;;;38.97;19.27;;;11.90;59.60;;;;;;5096911;27;20098;-59
2022/03/27 09:03:59;;;;;;;36.10;18.95;;;11.90;59.60;;;;;;5116370;27;20035;-61
2022/03/27 09:06:25;;;;;;;50.05;20.25;;;11.90;59.70;;;;;;5080510;28;20035;-60
2022/03/27 09:08:51;;;;;;;41.80;19.83;;;11.90;60.40;;;;;;5098894;28;20130;-60
2022/03/27 09:11:18;;;;;;;44.88;18.73;;;12.00;59.80;;;;;;5097237;28;20042;-60
2022/03/27 09:13:48;;;;;;;46.13;20.02;;;12.00;59.90;;;;;;5082098;28;20020;-60
2022/03/27 09:16:14;;;;;;;42.08;19.98;;;12.00;59.90;;;;;;5098668;28;20107;-60
2022/03/27 09:18:54;;;;;;;46.00;19.63;;;12.10;59.90;;;;;;5115689;27;20483;-60
2022/03/27 09:21:21;;;;;;;53.00;20.58;;;12.10;60.00;;;;;;5093275;28;20079;-59
2022/03/27 09:23:58;;;;;;;47.13;19.77;;;12.10;60.00;;;;;;5099152;28;20087;-59
2022/03/27 09:26:23;;;;;;;52.50;19.55;;;12.20;60.00;;;;;;5096099;27;20023;-60
2022/03/27 09:28:52;;;;;;;53.47;20.58;;;12.20;60.00;;;;;;5080612;27;20019;-59
2022/03/27 09:31:18;;;;;;;57.85;20.35;;;12.30;60.00;;;;;;5117135;28;20039;-60
2022/03/27 09:33:50;;;;;;;63.78;22.42;;;12.30;60.00;;;;;;5116351;27;20028;-60
2022/03/27 09:36:18;;;;;;;60.53;21.05;;;12.30;60.20;;;;;;5102179;27;20031;-60
2022/03/27 09:39:05;;;;;;;48.60;21.10;;;12.40;60.10;;;;;;5095530;27;20048;-60
2022/03/27 09:41:42;;;;;;;49.63;20.73;;;12.40;60.10;;;;;;5114478;27;20034;-60
2022/03/27 09:44:15;;;;;;;99.85;22.35;;;12.40;60.10;;;;;;5085611;27;20027;-60
2022/03/27 09:46:47;;;;;;;72.65;20.95;;;12.50;60.20;;;;;;5112420;27;20048;-59
2022/03/27 09:49:13;;;;;;;77.40;22.10;;;12.50;60.30;;;;;;5097394;27;20127;-60
2022/03/27 09:51:51;;;;;;;68.22;21.73;;;12.60;60.00;;;;;;5084731;28;20415;-59
2022/03/27 09:54:17;;;;;;;62.38;20.98;;;12.60;60.10;;;;;;5113875;27;20418;-60
2022/03/27 09:56:42;;;;;;;55.55;21.20;;;12.70;60.30;;;;;;5119200;27;20040;-60
2022/03/27 09:59:13;;;;;;;82.85;22.75;;;12.70;60.10;;;;;;5119467;27;20023;-59
2022/03/27 10:01:38;;;;;;;100.47;23.40;;;12.80;60.50;;;;;;5089116;27;20126;-59
2022/03/27 10:04:13;;;;;;;97.15;25.27;;;12.80;60.70;;;;;;5102976;27;20553;-60
2022/03/27 10:06:40;;;;;;;121.95;26.17;;;12.90;60.70;;;;;;5083462;28;20058;-60
2022/03/27 10:09:14;;;;;;;76.30;22.75;;;12.90;60.70;;;;;;5103909;27;20149;-60
2022/03/27 10:11:41;;;;;;;59.08;20.55;;;13.00;60.10;;;;;;5081306;28;20750;-60
2022/03/27 10:14:07;;;;;;;64.88;21.45;;;13.00;59.80;;;;;;5109648;27;20023;-59
2022/03/27 10:16:34;;;;;;;91.15;22.65;;;13.00;59.90;;;;;;5090737;27;20026;-60
2022/03/27 10:19:04;;;;;;;81.97;24.00;;;13.10;60.30;;;;;;5098290;27;20450;-60
2022/03/27 10:21:30;;;;;;;82.78;23.02;;;13.10;60.70;;;;;;5094630;27;20160;-59
2022/03/27 10:24:05;;;;;;;94.13;22.83;;;13.20;60.40;;;;;;5093452;27;20028;-61
2022/03/27 10:26:32;;;;;;;101.28;25.02;;;13.30;60.50;;;;;;5084458;27;20038;-60
2022/03/27 10:28:59;;;;;;;97.85;23.40;;;13.30;60.60;;;;;;5076691;28;20051;-59
2022/03/27 10:31:25;;;;;;;106.05;24.67;;;13.40;60.50;;;;;;5094791;27;20088;-63
2022/03/27 10:33:50;;;;;;;108.68;24.17;;;13.40;60.40;;;;;;5080143;28;20119;-60
2022/03/27 10:36:42;;;;;;;94.72;25.88;;;13.40;60.50;;;;;;5088614;27;20047;-60
2022/03/27 10:39:28;;;;;;;124.13;26.45;;;13.50;60.40;;;;;;5097051;27;20046;-60
2022/03/27 10:42:03;;;;;;;;;;;13.60;60.50;;;;;;5082523;27;20043;-60
2022/03/27 10:44:37;;;;;;;66.82;22.65;;;13.60;60.40;;;;;;5105661;27;20002;-60
2022/03/27 10:47:21;;;;;;;108.78;25.00;;;13.60;59.90;;;;;;5091097;27;20087;-60
2022/03/27 10:50:04;;;;;;;101.88;23.98;;;13.70;60.30;;;;;;5096088;27;20019;-60
2022/03/27 10:52:34;;;;;;;83.10;24.52;;;13.70;59.80;;;;;;5096070;27;20332;-60
2022/03/27 10:55:02;;;;;;;112.30;25.42;;;13.80;59.90;;;;;;5096430;27;20026;-59
2022/03/27 10:57:34;;;;;;;120.22;25.55;;;13.90;60.00;;;;;;5098044;27;20334;-59
2022/03/27 11:00:00;;;;;;;129.68;25.75;;;14.10;60.20;;;;;;5091860;27;20052;-60
2022/03/27 11:02:45;;;;;;;84.55;23.20;;;13.90;60.00;;;;;;5091428;27;20039;-59
2022/03/27 11:05:29;;;;;;;106.55;24.55;;;14.00;59.60;;;;;;5097044;27;20417;-60
2022/03/27 11:08:17;;;;;;;67.38;22.75;;;14.10;59.50;;;;;;5095843;27;20150;-60
2022/03/27 11:10:44;;;;;;;95.05;24.25;;;14.10;59.30;;;;;;5108807;27;20027;-60
2022/03/27 11:13:28;;;;;;;90.03;24.58;;;14.10;59.70;;;;;;5116898;27;20154;-61
2022/03/27 11:16:12;;;;;;;66.65;24.10;;;14.20;59.90;;;;;;5114910;27;20031;-61
2022/03/27 11:18:43;;;;;;;90.90;22.88;;;14.30;59.30;;;;;;5097012;27;20027;-60
2022/03/27 11:21:10;;;;;;;106.20;24.20;;;14.30;59.10;;;;;;5081585;28;20100;-61
2022/03/27 11:23:37;;;;;;;82.25;24.92;;;14.40;59.60;;;;;;5117242;27;20027;-60
2022/03/27 11:26:27;;;;;;;87.88;26.20;;;14.40;58.90;;;;;;5072992;28;20092;-60
2022/03/27 11:29:04;;;;;;;73.63;23.48;;;14.50;58.60;;;;;;5082018;27;20024;-60
2022/03/27 11:31:32;;;;;;;88.22;23.40;;;14.50;58.20;;;;;;5113142;27;20074;-60
2022/03/27 11:34:16;;;;;;;72.70;22.75;;;14.60;58.50;;;;;;5111811;27;20020;-60
2022/03/27 11:36:42;;;;;;;57.13;21.92;;;14.60;58.10;;;;;;5105495;27;21464;-60
2022/03/27 11:39:32;;;;;;;72.15;23.88;;;14.70;57.80;;;;;;5077876;27;20699;-60
2022/03/27 11:42:25;;;;;;;68.53;23.38;;;14.70;57.90;;;;;;5120517;27;20051;-59
2022/03/27 11:45:08;;;;;;;99.90;24.52;;;14.80;57.80;;;;;;5114384;27;20123;-61
2022/03/27 11:47:38;;;;;;;74.45;23.15;;;14.80;57.80;;;;;;5083617;27;20054;-61
2022/03/27 11:50:04;;;;;;;61.55;21.42;;;14.90;58.00;;;;;;5099703;27;20019;-60
2022/03/27 11:52:29;;;;;;;76.57;22.45;;;14.90;57.70;;;;;;5100843;27;20027;-60
2022/03/27 11:55:05;;;;;;;62.85;21.98;;;15.00;57.60;;;;;;5092845;27;20039;-61
2022/03/27 11:57:48;;;;;;;64.70;20.67;;;15.10;57.60;;;;;;5099980;27;20478;-60
2022/03/27 12:00:15;;;;;;;58.72;23.60;;;15.10;56.70;;;;;;5075473;27;20069;-61
2022/03/27 12:02:42;;;;;;;62.17;22.83;;;15.20;56.30;;;;;;5104352;27;20056;-60
2022/03/27 12:05:08;;;;;;;52.97;21.70;;;15.30;56.20;;;;;;5075806;27;20022;-61
2022/03/27 12:07:58;;;;;;;52.80;21.55;;;15.30;56.30;;;;;;5115241;27;20073;-61
2022/03/27 12:10:24;;;;;;;83.35;22.67;;;15.40;56.20;;;;;;5081886;27;20031;-60
2022/03/27 12:13:00;;;;;;;62.05;21.88;;;15.50;56.50;;;;;;5111369;27;20035;-61
2022/03/27 12:15:49;;;;;;;54.95;21.80;;;15.50;56.20;;;;;;5081492;27;20160;-60
2022/03/27 12:18:28;;;;;;;65.25;22.27;;;15.60;56.10;;;;;;5113340;27;20080;-60
2022/03/27 12:20:53;;;;;;;56.85;21.50;;;15.60;56.10;;;;;;5083077;27;20116;-60
2022/03/27 12:23:29;;;;;;;58.80;21.45;;;15.70;55.70;;;;;;5097216;27;20122;-60
2022/03/27 12:31:59;;;;;;;64.15;20.52;;;15.80;55.60;;;;;;5101233;27;20286;-60
2022/03/27 12:34:24;;;;;;;63.95;22.15;;;16.00;55.40;;;;;;5084273;27;20038;-61
2022/03/27 12:37:09;;;;;;;60.38;22.05;;;16.00;55.30;;;;;;5112681;27;20023;-61
2022/03/27 12:39:39;;;;;;;89.03;24.13;;;16.10;54.40;;;;;;5094704;27;20115;-60
2022/03/27 12:42:06;;;;;;;76.35;23.05;;;16.20;54.30;;;;;;5096741;27;20023;-60
2022/03/27 12:44:49;;;;;;;86.40;23.80;;;16.20;54.70;;;;;;5088069;27;20030;-60